Time;durP1;ratioP1;P1;durP2;ratioP2;P2;SDS_P1;SDS_P2;PMS_P1;PMS_P2;Temp;Humidity;BMP_temperature;BMP_pressure;BME280_temperature;BME280_humidity;BME280_pressure;Samples;Min_cycle;Max_cycle;Signal;HPM_P1;HPM_P2
2023/11/12 00:00:18;;;;;;;6.10;5.60;;;;;;;14.03;100.00;97299.79;104586;1253;73617;-64
2023/11/12 00:02:46;;;;;;;6.70;5.70;;;;;;;14.05;100.00;97296.05;104568;1252;68080;-64
2023/11/12 00:05:14;;;;;;;6.20;5.60;;;;;;;14.07;100.00;97293.27;104542;1253;72589;-64
2023/11/12 00:07:42;;;;;;;6.90;5.60;;;;;;;14.06;100.00;97285.91;104543;1256;61724;-65
2023/11/12 00:10:12;;;;;;;6.30;5.70;;;;;;;14.05;100.00;97282.30;104826;1251;60453;-64
2023/11/12 00:12:40;;;;;;;6.20;5.60;;;;;;;14.07;100.00;97278.22;104683;1257;73668;-64
2023/11/12 00:15:08;;;;;;;7.00;5.50;;;;;;;14.09;100.00;97272.98;104644;1254;69878;-64
2023/11/12 00:17:37;;;;;;;5.30;4.90;;;;;;;14.08;100.00;97269.50;104701;1254;72453;-64
2023/11/12 00:20:06;;;;;;;4.90;4.50;;;;;;;14.10;100.00;97266.89;104862;1252;61384;-65
2023/11/12 00:22:34;;;;;;;5.40;4.90;;;;;;;14.11;100.00;97264.06;104385;1254;60897;-64
2023/11/12 00:25:01;;;;;;;5.50;4.40;;;;;;;14.13;100.00;97257.18;108434;1253;73660;-65
2023/11/12 00:27:29;;;;;;;4.60;4.20;;;;;;;14.17;100.00;97253.67;108435;1251;70154;-65
2023/11/12 00:29:56;;;;;;;4.20;3.90;;;;;;;14.16;100.00;97252.02;108525;1252;72486;-65
2023/11/12 00:32:25;;;;;;;8.60;4.10;;;;;;;14.13;100.00;97250.02;108379;1251;61468;-65
2023/11/12 00:34:53;;;;;;;4.50;4.10;;;;;;;14.15;100.00;97241.21;108509;1251;59841;-65
2023/11/12 00:37:20;;;;;;;6.40;4.60;;;;;;;14.16;100.00;97243.38;108573;1251;74498;-65
2023/11/12 00:39:48;;;;;;;5.80;4.20;;;;;;;14.19;100.00;97241.14;108493;1252;68615;-65
2023/11/12 00:42:16;;;;;;;4.20;3.80;;;;;;;14.20;100.00;97236.29;108483;1253;72517;-65
2023/11/12 00:44:45;;;;;;;4.40;4.00;;;;;;;14.22;100.00;97232.43;108468;1251;61434;-65
2023/11/12 00:47:13;;;;;;;4.10;3.80;;;;;;;14.23;100.00;97231.94;108462;1251;60086;-65
2023/11/12 00:49:41;;;;;;;4.60;4.20;;;;;;;14.27;100.00;97229.17;108463;1251;74554;-65
2023/11/12 00:52:08;;;;;;;4.40;4.10;;;;;;;14.23;100.00;97216.77;108538;1251;69550;-65
2023/11/12 00:54:36;;;;;;;4.80;4.00;;;;;;;14.32;100.00;97222.00;108497;1251;72091;-65
2023/11/12 00:57:04;;;;;;;4.40;4.10;;;;;;;14.33;100.00;97219.00;108450;1251;60920;-66
2023/11/12 00:59:31;;;;;;;5.70;3.70;;;;;;;14.40;100.00;97213.39;108361;1251;60172;-67
2023/11/12 01:01:59;;;;;;;4.20;3.90;;;;;;;14.45;100.00;97211.73;108331;1251;73561;-65
2023/11/12 01:04:27;;;;;;;4.70;4.30;;;;;;;14.49;100.00;97206.91;108513;1250;69285;-65
2023/11/12 01:06:54;;;;;;;4.20;3.90;;;;;;;14.51;100.00;97200.15;108486;1252;72186;-65
2023/11/12 01:09:22;;;;;;;4.80;4.40;;;;;;;14.53;100.00;97198.55;108481;1251;61364;-65
2023/11/12 01:11:50;;;;;;;;;;;;;;;14.55;100.00;97194.20;108448;1252;60741;-66
2023/11/12 01:14:18;;;;;;;;;;;;;;;14.57;100.00;97189.92;108348;1251;73744;-65
2023/11/12 01:16:45;;;;;;;;;;;;;;;14.61;100.00;97189.90;108383;1253;69485;-65
2023/11/12 01:19:13;;;;;;;4.40;4.00;;;;;;;14.65;100.00;97186.34;108435;1252;72954;-65
2023/11/12 01:21:40;;;;;;;4.80;4.40;;;;;;;14.65;100.00;97184.79;108525;1251;60928;-66
2023/11/12 01:24:09;;;;;;;4.70;4.20;;;;;;;14.65;100.00;97179.66;108419;1254;59686;-65
2023/11/12 01:26:36;;;;;;;5.40;4.90;;;;;;;14.66;100.00;97179.51;108275;1251;72925;-65
2023/11/12 01:29:04;;;;;;;5.00;4.50;;;;;;;14.66;100.00;97177.98;108330;1252;69331;-65
2023/11/12 01:31:32;;;;;;;4.10;3.70;;;;;;;14.65;100.00;97172.95;108420;1253;72357;-66
2023/11/12 01:34:03;;;;;;;4.50;4.10;;;;;;;14.61;100.00;97165.27;108455;1254;60808;-65
2023/11/12 01:36:30;;;;;;;4.20;3.90;;;;;;;14.72;100.00;97172.41;108551;1251;58782;-66
2023/11/12 01:38:58;;;;;;;4.40;3.70;;;;;;;14.74;100.00;97166.25;108500;1251;74549;-66
2023/11/12 01:41:26;;;;;;;3.80;3.50;;;;;;;14.74;100.00;97168.99;108471;1252;70393;-66
2023/11/12 01:43:54;;;;;;;4.00;3.60;;;;;;;14.73;100.00;97166.64;108480;1252;72981;-66
2023/11/12 01:46:22;;;;;;;3.60;3.30;;;;;;;14.70;100.00;97164.36;108307;1253;61484;-66
2023/11/12 01:48:49;;;;;;;3.10;2.90;;;;;;;14.67;100.00;97163.38;108089;1254;60227;-66
2023/11/12 01:51:17;;;;;;;3.50;3.20;;;;;;;14.64;100.00;97161.17;108452;1252;73678;-66
2023/11/12 01:53:45;;;;;;;;;;;;;;;14.63;100.00;97159.38;108496;1252;69066;-66
2023/11/12 01:56:12;;;;;;;7.20;2.70;;;;;;;14.63;100.00;97154.46;108539;1252;73353;-66
2023/11/12 01:58:41;;;;;;;3.50;2.20;;;;;;;14.66;100.00;97155.20;108058;1252;62960;-66
2023/11/12 02:01:10;;;;;;;2.40;2.20;;;;;;;14.65;100.00;97151.95;108357;1251;60771;-65
2023/11/12 02:03:37;;;;;;;2.50;2.20;;;;;;;14.66;100.00;97150.65;108320;1253;74042;-66
2023/11/12 02:06:05;;;;;;;3.10;2.30;;;;;;;14.66;100.00;97147.27;108135;1251;69162;-66
2023/11/12 02:08:33;;;;;;;;;;;;;;;14.66;100.00;97148.34;108330;1251;71486;-64
2023/11/12 02:11:07;;;;;;;2.20;2.00;;;;;;;14.64;100.00;97147.48;108466;1253;62408;-64
2023/11/12 02:13:36;;;;;;;1.90;1.80;;;;;;;14.63;100.00;97144.58;108527;1251;58961;-64
2023/11/12 02:16:04;;;;;;;2.10;2.00;;;;;;;14.60;100.00;97142.44;108381;1251;74440;-64
2023/11/12 02:18:32;;;;;;;1.70;1.60;;;;;;;14.55;100.00;97140.17;108452;1253;68865;-66
2023/11/12 02:21:02;;;;;;;2.20;1.80;;;;;;;14.59;100.00;97141.79;108269;1251;72917;-66
2023/11/12 02:23:30;;;;;;;2.40;2.20;;;;;;;14.57;100.00;97137.95;108352;1253;62372;-65
2023/11/12 02:26:02;;;;;;;2.00;1.80;;;;;;;14.51;100.00;97136.58;108172;1251;59655;-65
2023/11/12 02:28:29;;;;;;;3.50;2.30;;;;;;;14.45;100.00;97135.91;108538;1251;73626;-66
2023/11/12 02:30:57;;;;;;;2.60;2.40;;;;;;;14.40;100.00;97134.11;108375;1253;68320;-66
2023/11/12 02:33:27;;;;;;;2.40;2.30;;;;;;;14.37;100.00;97133.51;108277;1251;72455;-66
2023/11/12 02:35:56;;;;;;;2.00;1.90;;;;;;;14.33;100.00;97130.89;108271;1254;61417;-66
2023/11/12 02:38:24;;;;;;;5.00;1.80;;;;;;;14.35;100.00;97132.09;108273;1251;59655;-66
2023/11/12 02:40:51;;;;;;;2.10;2.00;;;;;;;14.38;100.00;97133.38;108381;1251;72346;-66
2023/11/12 02:43:20;;;;;;;;;;;;;;;14.37;100.00;97135.67;108548;1251;69209;-66
2023/11/12 02:45:48;;;;;;;3.10;1.50;;;;;;;14.25;100.00;97133.67;108493;1251;73039;-69
2023/11/12 02:48:17;;;;;;;1.40;1.30;;;;;;;14.19;100.00;97132.80;108413;1252;61453;-66
2023/11/12 02:50:45;;;;;;;;;;;;;;;14.19;100.00;97131.07;108435;1251;60940;-65
2023/11/12 02:53:13;;;;;;;1.20;1.10;;;;;;;14.25;100.00;97129.05;108452;1251;73612;-65
2023/11/12 02:55:40;;;;;;;1.60;1.40;;;;;;;14.28;100.00;97127.56;108490;1251;69179;-65
2023/11/12 02:58:10;;;;;;;2.00;0.90;;;;;;;14.29;100.00;97124.99;108471;1253;72892;-65
2023/11/12 03:00:37;;;;;;;1.00;1.00;;;;;;;14.32;100.00;97125.78;108335;1251;60495;-66
2023/11/12 03:03:05;;;;;;;1.40;1.00;;;;;;;14.35;100.00;97124.26;108336;1251;59757;-65
2023/11/12 03:05:33;;;;;;;1.30;0.90;;;;;;;14.32;100.00;97127.30;108524;1252;73616;-65
2023/11/12 03:08:01;;;;;;;1.50;0.70;;;;;;;14.29;100.00;97125.63;108431;1251;69169;-66
2023/11/12 03:10:29;;;;;;;0.80;0.70;;;;;;;14.29;100.00;97126.19;108510;1252;73373;-65
2023/11/12 03:12:57;;;;;;;0.70;0.70;;;;;;;14.28;100.00;97125.25;108090;1254;269236;-65
2023/11/12 03:16:16;;;;;;;0.70;0.70;;;;;;;13.70;100.00;97125.85;101748;1295;601078;-64
2023/11/12 03:18:46;;;;;;;;;;;;;;;14.19;100.00;97121.50;103591;1268;61846;-64
2023/11/12 03:21:15;;;;;;;0.40;0.40;;;;;;;14.12;100.00;97122.05;103605;1264;59818;-63
2023/11/12 03:23:43;;;;;;;0.40;0.40;;;;;;;14.08;100.00;97121.04;103584;1278;70877;-64
2023/11/12 03:26:10;;;;;;;0.80;0.70;;;;;;;14.05;100.00;97119.42;103625;1267;69159;-64
2023/11/12 03:28:38;;;;;;;0.50;0.50;;;;;;;14.03;100.00;97118.68;105530;1266;71593;-65
2023/11/12 03:31:05;;;;;;;0.30;0.30;;;;;;;14.04;100.00;97116.52;105389;1264;171182;-64
2023/11/12 03:33:35;;;;;;;;;;;;;;;13.99;100.00;97113.89;103985;1269;60473;-64
2023/11/12 03:36:04;;;;;;;0.40;0.30;;;;;;;13.91;100.00;97116.87;103877;1270;71951;-64
2023/11/12 03:38:31;;;;;;;1.70;0.40;;;;;;;13.83;100.00;97112.83;103909;1262;70033;-64
2023/11/12 03:40:59;;;;;;;0.20;0.20;;;;;;;13.76;100.00;97113.05;103941;1262;72891;-64
2023/11/12 03:43:27;;;;;;;3.00;0.50;;;;;;;13.72;100.00;97113.08;104141;1268;62428;-64
2023/11/12 03:45:56;;;;;;;1.50;0.10;;;;;;;13.67;100.00;97113.73;103867;1268;59670;-64
2023/11/12 03:48:23;;;;;;;0.80;0.30;;;;;;;13.63;100.00;97114.27;104078;1265;73383;-63
2023/11/12 03:50:53;;;;;;;0.20;0.20;;;;;;;13.62;100.00;97114.00;104242;1268;69078;-64
2023/11/12 03:53:21;;;;;;;2.10;0.20;;;;;;;13.56;100.00;97115.25;104140;1268;71299;-63
2023/11/12 03:55:49;;;;;;;0.20;0.20;;;;;;;13.50;100.00;97114.98;104169;1265;61776;-64
2023/11/12 03:58:19;;;;;;;0.30;0.20;;;;;;;13.49;100.00;97117.86;104098;1263;59710;-63
2023/11/12 04:00:47;;;;;;;0.40;0.30;;;;;;;13.45;100.00;97119.16;103956;1264;72916;-64
2023/11/12 04:03:15;;;;;;;0.80;0.30;;;;;;;13.39;100.00;97117.23;104177;1273;69490;-63
2023/11/12 04:05:44;;;;;;;0.30;0.30;;;;;;;13.33;100.00;97116.23;104625;1264;72677;-64
2023/11/12 05:48:31;;;;;;;0.70;0.40;;;;;;;12.99;100.00;97172.98;101900;1297;601298;-60
2023/11/12 05:51:00;;;;;;;0.90;0.50;;;;;;;12.94;100.00;97175.21;104631;1270;61244;-60
2023/11/12 05:53:28;;;;;;;0.30;0.30;;;;;;;12.94;100.00;97182.96;103494;1266;59828;-62
2023/11/12 05:55:55;;;;;;;0.40;0.40;;;;;;;12.93;100.00;97176.50;103414;1271;71938;-57
2023/11/12 05:58:23;;;;;;;0.40;0.40;;;;;;;12.89;100.00;97182.14;103850;1270;69326;-59
2023/11/12 06:00:54;;;;;;;0.30;0.30;;;;;;;12.90;100.00;97186.64;103871;1282;73414;-59
2023/11/12 06:03:22;;;;;;;0.30;0.30;;;;;;;12.84;100.00;97189.61;104177;1266;61833;-59
2023/11/12 06:05:50;;;;;;;;;;;;;;;12.78;100.00;97192.08;104293;1266;59700;-59
2023/11/12 06:08:17;;;;;;;0.30;0.30;;;;;;;12.79;100.00;97195.52;104247;1268;72110;-60
2023/11/12 06:10:45;;;;;;;0.40;0.40;;;;;;;12.77;100.00;97197.30;104045;1257;69054;-59
2023/11/12 06:13:13;;;;;;;;;;;;;;;12.75;100.00;97197.46;104132;1280;71538;-58
2023/11/12 06:15:41;;;;;;;0.30;0.30;;;;;;;12.74;100.00;97195.86;104427;1260;62375;-58
2023/11/12 06:18:09;;;;;;;;;;;;;;;12.71;100.00;97199.92;104391;1257;59963;-57
2023/11/12 06:20:37;;;;;;;0.30;0.30;;;;;;;12.69;100.00;97201.05;104291;1266;73611;-57
2023/11/12 06:23:06;;;;;;;0.40;0.40;;;;;;;12.67;100.00;97200.10;104503;1266;68084;-57
2023/11/12 06:25:34;;;;;;;2.30;0.50;;;;;;;12.66;100.00;97203.20;107669;1256;72897;-58
2023/11/12 06:28:02;;;;;;;0.40;0.40;;;;;;;12.63;100.00;97204.02;107710;1256;62048;-59
2023/11/12 06:30:30;;;;;;;0.70;0.60;;;;;;;12.66;100.00;97206.23;107606;1257;60218;-58
2023/11/12 06:32:59;;;;;;;0.90;0.70;;;;;;;12.71;100.00;97209.96;107819;1257;72022;-58
2023/11/12 06:35:27;;;;;;;0.90;0.40;;;;;;;12.70;100.00;97212.17;107771;1256;69166;-58
2023/11/12 06:37:54;;;;;;;0.60;0.60;;;;;;;12.66;100.00;97216.05;107802;1257;72527;-59
2023/11/12 06:40:22;;;;;;;1.60;0.50;;;;;;;12.64;100.00;97217.25;107716;1256;62425;-58
2023/11/12 06:42:50;;;;;;;0.70;0.70;;;;;;;12.67;100.00;97219.09;108282;1253;59747;-59
2023/11/12 06:45:19;;;;;;;0.70;0.70;;;;;;;12.71;100.00;97215.41;108237;1253;73330;-59
2023/11/12 06:47:47;;;;;;;0.60;0.60;;;;;;;12.76;100.00;97218.14;108287;1252;68470;-58
2023/11/12 06:50:15;;;;;;;1.30;0.80;;;;;;;12.75;100.00;97219.77;108302;1253;72572;-58
2023/11/12 06:52:42;;;;;;;1.10;0.60;;;;;;;12.71;100.00;97220.71;108251;1257;61845;-58
2023/11/12 06:55:10;;;;;;;0.70;0.60;;;;;;;12.70;100.00;97222.19;108255;1252;60215;-59
2023/11/12 06:57:38;;;;;;;0.80;0.80;;;;;;;12.62;100.00;97223.40;108420;1253;72923;-59
2023/11/12 07:00:08;;;;;;;0.60;0.60;;;;;;;12.59;100.00;97223.30;108287;1253;68338;-59
2023/11/12 07:02:38;;;;;;;0.40;0.40;;;;;;;12.61;100.00;97224.20;108313;1258;73303;-60
2023/11/12 07:05:06;;;;;;;0.60;0.60;;;;;;;12.62;100.00;97227.11;108387;1253;61666;-60
2023/11/12 07:07:34;;;;;;;0.50;0.50;;;;;;;12.68;100.00;97227.10;108232;1257;59085;-61
2023/11/12 07:10:01;;;;;;;0.70;0.70;;;;;;;12.73;100.00;97230.73;108297;1253;73746;-61
2023/11/12 07:12:30;;;;;;;0.60;0.60;;;;;;;12.69;100.00;97232.88;108303;1253;69086;-60
2023/11/12 07:14:58;;;;;;;0.90;0.70;;;;;;;12.69;100.00;97233.38;108334;1253;71566;-60
2023/11/12 07:17:26;;;;;;;0.80;0.50;;;;;;;12.65;100.00;97233.36;108317;1253;61693;-61
2023/11/12 07:19:55;;;;;;;1.10;0.80;;;;;;;12.60;100.00;97228.70;108360;1253;60095;-61
2023/11/12 07:22:23;;;;;;;0.90;0.70;;;;;;;12.64;100.00;97236.20;108342;1252;72906;-60
2023/11/12 07:24:54;;;;;;;0.70;0.50;;;;;;;12.63;100.00;97240.94;108273;1253;68595;-62
2023/11/12 07:27:25;;;;;;;0.70;0.50;;;;;;;12.58;100.00;97241.30;108312;1253;73336;-61
2023/11/12 07:29:53;;;;;;;0.40;0.40;;;;;;;12.56;100.00;97244.20;108215;1253;61551;-64
2023/11/12 07:32:20;;;;;;;0.70;0.70;;;;;;;12.58;100.00;97245.89;108330;1253;59673;-63
2023/11/12 07:34:48;;;;;;;0.60;0.50;;;;;;;12.58;100.00;97247.35;108241;1253;72879;-63
2023/11/12 07:37:16;;;;;;;0.70;0.50;;;;;;;12.58;100.00;97251.70;108302;1253;68149;-62
2023/11/12 07:39:44;;;;;;;0.60;0.50;;;;;;;12.65;100.00;97252.65;108264;1253;72539;-62
2023/11/12 07:42:11;;;;;;;;;;;;;;;12.67;100.00;97254.99;108302;1253;61954;-62
2023/11/12 07:44:39;;;;;;;3.10;0.40;;;;;;;12.71;100.00;97257.27;108302;1253;59492;-62
2023/11/12 07:47:07;;;;;;;0.70;0.70;;;;;;;12.73;100.00;97257.46;108352;1253;72741;-62
2023/11/12 07:49:34;;;;;;;0.80;0.70;;;;;;;12.70;100.00;97259.77;108357;1253;68316;-63
2023/11/12 07:52:03;;;;;;;1.10;1.00;;;;;;;12.70;100.00;97262.96;108370;1253;72569;-62
2023/11/12 07:54:30;;;;;;;0.50;0.50;;;;;;;12.74;100.00;97265.60;108381;1256;61418;-60
2023/11/12 07:56:58;;;;;;;0.70;0.70;;;;;;;12.77;100.00;97264.77;108185;1253;59763;-59
2023/11/12 07:59:26;;;;;;;0.90;0.60;;;;;;;12.80;100.00;97268.37;108394;1256;72784;-62
2023/11/12 08:01:53;;;;;;;0.90;0.70;;;;;;;12.88;100.00;97266.41;108095;1253;69714;-64
2023/11/12 08:04:21;;;;;;;0.90;0.90;;;;;;;12.93;100.00;97269.83;108353;1253;72354;-64
2023/11/12 08:06:49;;;;;;;;;;;;;;;12.92;100.00;97274.73;108294;1254;61384;-64
2023/11/12 08:09:16;;;;;;;;;;;;;;;12.82;100.00;97274.04;108356;1253;59438;-63
2023/11/12 08:11:44;;;;;;;0.50;0.50;;;;;;;12.78;100.00;97277.85;108326;1254;72850;-63
2023/11/12 08:14:13;;;;;;;1.40;0.80;;;;;;;12.80;100.00;97282.65;108426;1252;70075;-62
2023/11/12 08:16:42;;;;;;;0.50;0.40;;;;;;;12.77;100.00;97285.37;108312;1254;72481;-62
2023/11/12 08:19:10;;;;;;;1.10;0.80;;;;;;;12.82;100.00;97287.39;108154;1254;61398;-62
2023/11/12 08:21:38;;;;;;;2.00;0.90;;;;;;;12.88;100.00;97288.32;108292;1253;59714;-61
2023/11/12 08:24:06;;;;;;;0.70;0.70;;;;;;;12.86;100.00;97289.50;108239;1253;71935;-60
2023/11/12 08:26:38;;;;;;;0.70;0.70;;;;;;;12.84;100.00;97297.06;108304;1253;68600;-60
2023/11/12 08:29:08;;;;;;;3.90;0.70;;;;;;;12.83;100.00;97295.75;108278;1254;72367;-60
2023/11/12 08:31:36;;;;;;;0.80;0.80;;;;;;;12.82;100.00;97298.91;108344;1253;60866;-60
2023/11/12 08:34:04;;;;;;;0.50;0.50;;;;;;;12.84;100.00;97302.27;108345;1254;59735;-60
2023/11/12 08:36:31;;;;;;;2.20;0.70;;;;;;;12.74;100.00;97299.14;108331;1257;72077;-60
2023/11/12 08:39:00;;;;;;;0.70;0.70;;;;;;;12.78;100.00;97304.40;108317;1254;69729;-59
2023/11/12 08:41:28;;;;;;;0.80;0.60;;;;;;;12.79;100.00;97305.23;108266;1254;72877;-61
2023/11/12 08:43:56;;;;;;;0.70;0.40;;;;;;;12.73;100.00;97307.84;108319;1253;61409;-60
2023/11/12 08:46:24;;;;;;;0.60;0.60;;;;;;;12.64;100.00;97306.90;108316;1257;59688;-60
2023/11/12 08:48:51;;;;;;;0.60;0.50;;;;;;;12.56;100.00;97312.30;108296;1253;73308;-61
2023/11/12 08:51:19;;;;;;;0.60;0.50;;;;;;;12.61;100.00;97308.23;108284;1252;69145;-61
2023/11/12 08:53:47;;;;;;;0.40;0.40;;;;;;;12.63;100.00;97306.65;108271;1254;72890;-61
2023/11/12 08:56:14;;;;;;;0.70;0.70;;;;;;;12.68;100.00;97310.08;108367;1253;61413;-61
2023/11/12 08:58:42;;;;;;;0.30;0.30;;;;;;;12.69;100.00;97310.16;108311;1253;59882;-61
2023/11/12 09:01:11;;;;;;;0.30;0.30;;;;;;;12.64;100.00;97310.95;108271;1254;72879;-61
2023/11/12 09:03:40;;;;;;;0.60;0.50;;;;;;;12.63;100.00;97308.73;108325;1254;68075;-63
2023/11/12 09:06:07;;;;;;;;;;;;;;;12.66;100.00;97309.85;108304;1254;72406;-59
2023/11/12 09:08:35;;;;;;;0.40;0.40;;;;;;;12.72;100.00;97314.58;108159;1255;62400;-58
2023/11/12 09:11:03;;;;;;;0.50;0.50;;;;;;;12.78;100.00;97316.52;108290;1253;60095;-59
2023/11/12 09:13:31;;;;;;;1.10;0.40;;;;;;;12.80;100.00;97322.71;108265;1252;72858;-59
2023/11/12 09:15:59;;;;;;;;;;;;;;;12.77;100.00;97327.33;108341;1253;70211;-59
2023/11/12 09:18:26;;;;;;;0.40;0.40;;;;;;;12.78;100.00;97321.30;108316;1254;72702;-59
2023/11/12 09:20:55;;;;;;;0.70;0.30;;;;;;;12.77;100.00;97326.53;108324;1253;61415;-60
2023/11/12 09:23:22;;;;;;;0.30;0.30;;;;;;;12.76;100.00;97324.84;108412;1257;59670;-60
2023/11/12 09:25:50;;;;;;;1.40;0.30;;;;;;;12.84;100.00;97326.42;108309;1254;72284;-60
2023/11/12 09:28:18;;;;;;;;;;;;;;;12.91;100.00;97328.98;108291;1252;69110;-59
2023/11/12 09:30:46;;;;;;;0.50;0.40;;;;;;;12.91;100.00;97328.48;108266;1255;72219;-60
2023/11/12 09:33:26;;;;;;;1.10;0.40;;;;;;;12.91;100.00;97332.32;108288;1255;62160;-60
2023/11/12 09:35:54;;;;;;;2.40;0.40;;;;;;;12.93;100.00;97334.05;108298;1254;60675;-60
2023/11/12 09:38:22;;;;;;;0.30;0.30;;;;;;;12.98;100.00;97332.72;108227;1254;72878;-59
2023/11/12 09:40:50;;;;;;;0.40;0.40;;;;;;;12.94;100.00;97336.80;108288;1254;69268;-60
2023/11/12 09:43:18;;;;;;;0.40;0.40;;;;;;;12.93;100.00;97337.90;108058;1255;71116;-59
2023/11/12 09:45:45;;;;;;;0.50;0.40;;;;;;;12.96;100.00;97336.27;108317;1253;62066;-59
2023/11/12 09:48:35;;;;;;;0.60;0.60;;;;;;;12.96;100.00;97344.18;108258;1253;59727;-58
2023/11/12 09:51:07;;;;;;;0.50;0.50;;;;;;;12.93;100.00;97337.71;108035;1254;72868;-59
2023/11/12 09:53:39;;;;;;;0.80;0.50;;;;;;;12.92;100.00;97338.15;108430;1253;69171;-60
2023/11/12 09:56:10;;;;;;;0.60;0.50;;;;;;;12.94;100.00;97341.54;108305;1254;71833;-60
2023/11/12 09:58:40;;;;;;;0.40;0.40;;;;;;;12.93;100.00;97340.74;108265;1253;61777;-59
2023/11/12 10:01:09;;;;;;;0.80;0.70;;;;;;;12.96;100.00;97343.60;108254;1254;59823;-60
2023/11/12 10:03:38;;;;;;;0.60;0.60;;;;;;;12.97;100.00;97347.55;108305;1255;72802;-60
2023/11/12 10:06:06;;;;;;;1.10;0.80;;;;;;;12.95;100.00;97345.78;108166;1253;69561;-62
2023/11/12 10:08:37;;;;;;;0.60;0.60;;;;;;;12.93;100.00;97345.51;108256;1254;71759;-61
2023/11/12 10:11:22;;;;;;;0.90;0.50;;;;;;;12.93;100.00;97348.81;108265;1253;61663;-60
2023/11/12 10:13:56;;;;;;;1.10;0.60;;;;;;;12.92;100.00;97345.60;108223;1254;60362;-60
2023/11/12 10:16:30;;;;;;;0.30;0.30;;;;;;;12.98;100.00;97348.36;108129;1251;73642;-59
2023/11/12 10:19:12;;;;;;;0.30;0.30;;;;;;;13.00;100.00;97351.14;108362;1253;69496;-58
2023/11/12 10:21:56;;;;;;;0.90;0.60;;;;;;;12.93;100.00;97354.61;108318;1254;73508;-59
2023/11/12 10:24:30;;;;;;;0.50;0.50;;;;;;;12.90;100.00;97364.25;108305;1254;61644;-58
2023/11/12 10:27:03;;;;;;;0.50;0.50;;;;;;;12.90;100.00;97367.38;108227;1254;58866;-57
2023/11/12 10:29:31;;;;;;;0.30;0.30;;;;;;;12.93;100.00;97367.61;108320;1252;73673;-58
2023/11/12 10:31:59;;;;;;;0.50;0.50;;;;;;;12.92;100.00;97371.80;108245;1253;70220;-58
2023/11/12 10:34:28;;;;;;;2.00;0.70;;;;;;;12.89;100.00;97376.77;108277;1253;72461;-60
2023/11/12 10:37:10;;;;;;;0.60;0.60;;;;;;;12.88;100.00;97379.87;108259;1254;62006;-56
2023/11/12 10:39:41;;;;;;;1.50;0.70;;;;;;;12.90;100.00;97377.10;108380;1253;59671;-57
2023/11/12 10:42:20;;;;;;;0.70;0.70;;;;;;;12.87;100.00;97382.73;108267;1254;72610;-58
2023/11/12 10:44:54;;;;;;;0.60;0.60;;;;;;;12.87;100.00;97385.42;108264;1252;69175;-59
2023/11/12 10:47:23;;;;;;;0.80;0.80;;;;;;;12.92;100.00;97391.46;108083;1253;72589;-58
2023/11/12 10:49:51;;;;;;;0.70;0.70;;;;;;;12.93;100.00;97384.71;108185;1254;62320;-59
2023/11/12 10:52:18;;;;;;;0.50;0.50;;;;;;;12.93;100.00;97390.83;108110;1253;61246;-58
2023/11/12 10:54:49;;;;;;;0.70;0.70;;;;;;;12.93;100.00;97392.83;108092;1254;74243;-58
2023/11/12 10:57:23;;;;;;;0.60;0.60;;;;;;;12.92;100.00;97394.32;108263;1254;69559;-58
2023/11/12 10:59:51;;;;;;;0.90;0.90;;;;;;;12.90;100.00;97391.11;107980;1254;73359;-58
2023/11/12 11:02:19;;;;;;;0.70;0.70;;;;;;;12.82;100.00;97390.27;107995;1254;61943;-59
2023/11/12 11:04:47;;;;;;;0.70;0.70;;;;;;;12.80;100.00;97402.48;108240;1254;59888;-58
2023/11/12 11:07:16;;;;;;;1.00;1.00;;;;;;;12.80;100.00;97405.16;108457;1253;74492;-58
2023/11/12 11:09:43;;;;;;;;;;;;;;;12.84;100.00;97405.66;108206;1254;70018;-59
2023/11/12 11:12:11;;;;;;;0.90;0.80;;;;;;;12.82;100.00;97414.83;108374;1253;72940;-58
2023/11/12 11:14:39;;;;;;;;;;;;;;;12.76;100.00;97420.80;108216;1254;62324;-59
2023/11/12 11:17:08;;;;;;;;;;;;;;;12.74;100.00;97424.65;108183;1254;59553;-58
2023/11/12 11:19:43;;;;;;;0.80;0.80;;;;;;;12.72;100.00;97429.78;108273;1254;73576;-58
2023/11/12 11:22:32;;;;;;;0.80;0.80;;;;;;;12.74;100.00;97429.96;108301;1254;68182;-58
2023/11/12 11:25:31;;;;;;;0.80;0.80;;;;;;;12.69;100.00;97441.30;108285;1253;72547;-57
2023/11/12 11:28:34;;;;;;;1.00;1.00;;;;;;;12.68;100.00;97443.27;108266;1254;62497;-57
2023/11/12 11:31:09;;;;;;;1.70;0.70;;;;;;;12.58;100.00;97444.69;108218;1253;58663;-58
2023/11/12 11:33:47;;;;;;;0.70;0.70;;;;;;;12.61;100.00;97446.00;108348;1253;74510;-57
2023/11/12 11:36:16;;;;;;;0.90;0.70;;;;;;;12.64;100.00;97447.48;108301;1253;69358;-58
2023/11/12 11:39:12;;;;;;;1.40;0.70;;;;;;;12.59;100.00;97457.29;108290;1253;73351;-57
2023/11/12 11:41:53;;;;;;;0.80;0.60;;;;;;;12.62;100.00;97459.41;108282;1253;62688;-58
2023/11/12 11:44:43;;;;;;;0.70;0.70;;;;;;;12.63;100.00;97463.73;108252;1254;59815;-58
2023/11/12 11:47:15;;;;;;;0.50;0.50;;;;;;;12.62;100.00;97465.41;108288;1253;74317;-57
2023/11/12 11:49:47;;;;;;;0.70;0.60;;;;;;;12.63;100.00;97472.21;108202;1253;69673;-57
2023/11/12 11:52:20;;;;;;;0.70;0.70;;;;;;;12.59;100.00;97470.61;108242;1254;73145;-58
2023/11/12 11:55:02;;;;;;;0.90;0.80;;;;;;;12.51;100.00;97481.88;108226;1253;61839;-58
2023/11/12 11:57:31;;;;;;;0.70;0.70;;;;;;;12.47;100.00;97483.20;108183;1253;60218;-59
2023/11/12 12:00:00;;;;;;;0.90;0.70;;;;;;;12.47;100.00;97487.23;108278;1252;73704;-57
2023/11/12 12:02:41;;;;;;;3.00;1.00;;;;;;;12.51;100.00;97492.71;108259;1252;69118;-58
2023/11/12 12:05:08;;;;;;;0.70;0.70;;;;;;;12.54;100.00;97494.95;108243;1253;73352;-58
2023/11/12 12:07:39;;;;;;;0.70;0.70;;;;;;;12.60;100.00;97499.98;108435;1253;61770;-58
2023/11/12 12:10:07;;;;;;;0.60;0.60;;;;;;;12.60;100.00;97501.64;108397;1252;59989;-58
2023/11/12 12:12:36;;;;;;;0.70;0.70;;;;;;;12.59;100.00;97506.98;108322;1253;73608;-58
2023/11/12 12:15:08;;;;;;;0.80;0.80;;;;;;;12.58;100.00;97510.97;108410;1254;69242;-58
2023/11/12 12:17:40;;;;;;;0.50;0.50;;;;;;;12.57;100.00;97511.33;108164;1253;73358;-58
2023/11/12 12:20:09;;;;;;;1.10;0.80;;;;;;;12.57;100.00;97518.54;108424;1254;62409;-58
2023/11/12 12:22:37;;;;;;;1.90;0.80;;;;;;;12.59;100.00;97524.19;108267;1253;59734;-58
2023/11/12 12:25:05;;;;;;;0.80;0.80;;;;;;;12.58;100.00;97525.54;108267;1254;73322;-58
2023/11/12 12:27:33;;;;;;;0.50;0.50;;;;;;;12.49;100.00;97531.33;108137;1252;68457;-58
2023/11/12 12:30:03;;;;;;;1.30;0.60;;;;;;;12.45;100.00;97531.70;108065;1254;71784;-57
2023/11/12 12:32:35;;;;;;;0.70;0.70;;;;;;;12.37;100.00;97536.59;108230;1253;61523;-58
2023/11/12 12:35:04;;;;;;;0.70;0.70;;;;;;;12.34;100.00;97540.02;108210;1253;60068;-58
2023/11/12 12:37:35;;;;;;;0.80;0.80;;;;;;;12.35;100.00;97543.29;108310;1253;73683;-58
2023/11/12 12:40:06;;;;;;;1.50;1.20;;;;;;;12.32;100.00;97540.55;108315;1253;69098;-58
2023/11/12 12:42:34;;;;;;;1.20;1.00;;;;;;;12.35;100.00;97548.15;108176;1253;72343;-58
2023/11/12 12:45:04;;;;;;;1.80;1.20;;;;;;;12.38;100.00;97552.46;108205;1253;61480;-57
2023/11/12 12:47:35;;;;;;;1.10;0.50;;;;;;;12.34;100.00;97557.73;108105;1253;59963;-57
2023/11/12 12:50:17;;;;;;;1.10;0.70;;;;;;;12.25;100.00;97560.55;108410;1252;72663;-57
2023/11/12 12:52:45;;;;;;;1.10;0.70;;;;;;;12.22;100.00;97561.86;108206;1253;69354;-57
2023/11/12 12:55:17;;;;;;;0.50;0.40;;;;;;;12.12;100.00;97562.02;108153;1252;72923;-58
2023/11/12 12:57:50;;;;;;;0.50;0.50;;;;;;;12.05;100.00;97570.27;108235;1253;61494;-59
2023/11/12 13:00:24;;;;;;;0.50;0.50;;;;;;;11.99;100.00;97570.45;108258;1252;60201;-57
2023/11/12 13:02:52;;;;;;;0.70;0.50;;;;;;;12.04;100.00;97579.20;108307;1252;73582;-58
2023/11/12 13:05:21;;;;;;;0.40;0.40;;;;;;;12.00;100.00;97588.23;108389;1252;68262;-57
2023/11/12 13:07:50;;;;;;;0.90;0.60;;;;;;;12.03;100.00;97594.48;108449;1252;72404;-59
2023/11/12 13:10:20;;;;;;;0.80;0.50;;;;;;;12.04;100.00;97598.95;108355;1253;61590;-58
2023/11/12 13:12:50;;;;;;;1.30;0.70;;;;;;;12.02;100.00;97604.11;108241;1252;59855;-57